sensor_id;sensor_type;location;lat;lon;timestamp;pressure;altitude;pressure_sealevel;temperature;humidity
26192;BME280;13935;55.672;37.764;2023-09-08T00:00:36;100404.69;;;14.13;100.00
26192;BME280;13935;55.672;37.764;2023-09-08T00:01:38;100403.09;;;14.19;100.00
26192;BME280;13935;55.672;37.764;2023-09-08T00:02:41;100407.84;;;14.08;100.00
26192;BME280;13935;55.672;37.764;2023-09-08T00:03:43;100408.66;;;14.19;100.00
26192;BME280;13935;55.672;37.764;2023-09-08T00:04:45;100406.28;;;14.14;100.00
26192;BME280;13935;55.672;37.764;2023-09-08T00:05:47;100407.88;;;14.11;100.00
26192;BME280;13935;55.672;37.764;2023-09-08T00:06:49;100396.72;;;14.08;100.00
26192;BME280;13935;55.672;37.764;2023-09-08T00:07:51;100404.69;;;14.23;100.00
26192;BME280;13935;55.672;37.764;2023-09-08T00:08:53;100399.91;;;14.24;100.00
26192;BME280;13935;55.672;37.764;2023-09-08T00:09:57;100400.72;;;14.14;100.00
26192;BME280;13935;55.672;37.764;2023-09-08T00:10:59;100398.72;;;14.18;100.00
26192;BME280;13935;55.672;37.764;2023-09-08T00:12:01;100401.13;;;14.23;100.00
26192;BME280;13935;55.672;37.764;2023-09-08T00:13:03;100395.94;;;14.14;100.00
26192;BME280;13935;55.672;37.764;2023-09-08T00:14:06;100395.94;;;14.07;100.00
26192;BME280;13935;55.672;37.764;2023-09-08T00:15:08;100388.41;;;14.15;100.00
26192;BME280;13935;55.672;37.764;2023-09-08T00:16:10;100399.13;;;14.20;100.00
26192;BME280;13935;55.672;37.764;2023-09-08T00:17:13;100401.13;;;14.19;100.00
26192;BME280;13935;55.672;37.764;2023-09-08T00:18:15;100399.13;;;14.27;100.00
26192;BME280;13935;55.672;37.764;2023-09-08T00:19:21;100390.78;;;14.23;100.00
26192;BME280;13935;55.672;37.764;2023-09-08T00:20:23;100389.59;;;14.24;100.00
26192;BME280;13935;55.672;37.764;2023-09-08T00:21:26;100393.97;;;14.22;100.00
26192;BME280;13935;55.672;37.764;2023-09-08T00:22:28;100390.78;;;14.20;100.00
26192;BME280;13935;55.672;37.764;2023-09-08T00:23:30;100392.38;;;14.17;100.00
26192;BME280;13935;55.672;37.764;2023-09-08T00:24:32;100390.38;;;14.18;100.00
26192;BME280;13935;55.672;37.764;2023-09-08T00:25:34;100391.59;;;14.17;100.00
26192;BME280;13935;55.672;37.764;2023-09-08T00:26:36;100395.16;;;14.21;100.00
26192;BME280;13935;55.672;37.764;2023-09-08T00:27:38;100390.00;;;14.12;100.00
26192;BME280;13935;55.672;37.764;2023-09-08T00:28:41;100384.03;;;14.14;100.00
26192;BME280;13935;55.672;37.764;2023-09-08T00:29:43;100388.78;;;14.24;100.00
26192;BME280;13935;55.672;37.764;2023-09-08T00:30:45;100393.16;;;14.14;100.00
26192;BME280;13935;55.672;37.764;2023-09-08T00:31:49;100385.63;;;14.11;100.00
26192;BME280;13935;55.672;37.764;2023-09-08T00:32:51;100394.34;;;14.20;100.00
26192;BME280;13935;55.672;37.764;2023-09-08T00:33:53;100384.81;;;14.25;100.00
26192;BME280;13935;55.672;37.764;2023-09-08T00:34:55;100391.97;;;14.19;100.00
26192;BME280;13935;55.672;37.764;2023-09-08T00:35:57;100386.00;;;14.27;100.00
26192;BME280;13935;55.672;37.764;2023-09-08T00:37:00;100395.16;;;14.27;100.00
26192;BME280;13935;55.672;37.764;2023-09-08T00:38:08;100389.59;;;14.17;100.00
26192;BME280;13935;55.672;37.764;2023-09-08T00:39:10;100382.44;;;14.13;100.00
26192;BME280;13935;55.672;37.764;2023-09-08T00:40:12;100382.03;;;14.14;100.00
26192;BME280;13935;55.672;37.764;2023-09-08T00:41:15;100383.25;;;14.17;100.00
26192;BME280;13935;55.672;37.764;2023-09-08T00:42:17;100388.00;;;14.13;100.00
26192;BME280;13935;55.672;37.764;2023-09-08T00:43:19;100384.03;;;14.17;100.00
26192;BME280;13935;55.672;37.764;2023-09-08T00:44:22;100380.03;;;14.01;100.00
26192;BME280;13935;55.672;37.764;2023-09-08T00:45:27;100377.66;;;14.03;100.00
26192;BME280;13935;55.672;37.764;2023-09-08T00:46:32;100381.66;;;14.12;100.00
26192;BME280;13935;55.672;37.764;2023-09-08T00:47:34;100382.41;;;14.06;100.00
26192;BME280;13935;55.672;37.764;2023-09-08T00:48:37;100375.28;;;14.12;100.00
26192;BME280;13935;55.672;37.764;2023-09-08T00:49:40;100380.00;;;13.97;100.00
26192;BME280;13935;55.672;37.764;2023-09-08T00:50:42;100369.66;;;14.08;100.00
26192;BME280;13935;55.672;37.764;2023-09-08T00:51:45;100379.25;;;14.18;100.00
26192;BME280;13935;55.672;37.764;2023-09-08T00:52:47;100378.88;;;14.23;100.00
26192;BME280;13935;55.672;37.764;2023-09-08T00:53:50;100378.47;;;14.17;100.00
26192;BME280;13935;55.672;37.764;2023-09-08T00:54:53;100372.91;;;14.14;100.00
26192;BME280;13935;55.672;37.764;2023-09-08T00:55:56;100373.69;;;14.21;100.00
26192;BME280;13935;55.672;37.764;2023-09-08T00:57:01;100375.28;;;14.19;100.00
26192;BME280;13935;55.672;37.764;2023-09-08T00:58:05;100372.13;;;14.13;100.00
26192;BME280;13935;55.672;37.764;2023-09-08T00:59:08;100374.50;;;14.18;100.00
26192;BME280;13935;55.672;37.764;2023-09-08T01:00:11;100368.13;;;14.18;100.00
26192;BME280;13935;55.672;37.764;2023-09-08T01:01:14;100361.72;;;14.00;100.00
26192;BME280;13935;55.672;37.764;2023-09-08T01:02:16;100378.47;;;14.10;100.00
26192;BME280;13935;55.672;37.764;2023-09-08T01:03:18;100370.91;;;14.11;100.00
26192;BME280;13935;55.672;37.764;2023-09-08T01:04:20;100364.91;;;13.91;100.00
26192;BME280;13935;55.672;37.764;2023-09-08T01:05:23;100372.06;;;14.03;100.00
26192;BME280;13935;55.672;37.764;2023-09-08T01:06:26;100368.88;;;14.08;100.00
26192;BME280;13935;55.672;37.764;2023-09-08T01:07:29;100370.47;;;13.98;100.00
26192;BME280;13935;55.672;37.764;2023-09-08T01:08:32;100373.66;;;13.97;100.00
26192;BME280;13935;55.672;37.764;2023-09-08T01:09:36;100363.31;;;14.01;100.00
26192;BME280;13935;55.672;37.764;2023-09-08T01:10:38;100366.09;;;14.01;100.00
26192;BME280;13935;55.672;37.764;2023-09-08T01:11:43;100362.53;;;14.04;100.00
26192;BME280;13935;55.672;37.764;2023-09-08T01:12:46;100362.91;;;13.99;100.00
26192;BME280;13935;55.672;37.764;2023-09-08T01:13:48;100357.34;;;13.99;100.00
26192;BME280;13935;55.672;37.764;2023-09-08T01:14:50;100360.13;;;13.99;100.00
26192;BME280;13935;55.672;37.764;2023-09-08T01:15:52;100366.50;;;14.03;100.00
26192;BME280;13935;55.672;37.764;2023-09-08T01:16:54;100364.09;;;14.05;100.00
26192;BME280;13935;55.672;37.764;2023-09-08T01:17:58;100367.28;;;14.07;100.00
26192;BME280;13935;55.672;37.764;2023-09-08T01:19:00;100358.53;;;14.08;100.00
26192;BME280;13935;55.672;37.764;2023-09-08T01:20:46;100356.97;;;13.97;100.00
26192;BME280;13935;55.672;37.764;2023-09-08T01:25:09;100356.97;;;14.00;100.00
26192;BME280;13935;55.672;37.764;2023-09-08T01:26:18;100360.94;;;14.03;100.00
26192;BME280;13935;55.672;37.764;2023-09-08T01:27:24;100359.34;;;14.05;100.00
26192;BME280;13935;55.672;37.764;2023-09-08T01:28:27;100358.94;;;14.00;100.00
26192;BME280;13935;55.672;37.764;2023-09-08T01:29:30;100360.94;;;13.99;100.00
26192;BME280;13935;55.672;37.764;2023-09-08T01:30:33;100362.91;;;14.06;100.00
26192;BME280;13935;55.672;37.764;2023-09-08T01:31:38;100349.00;;;13.99;100.00
26192;BME280;13935;55.672;37.764;2023-09-08T01:32:42;100358.16;;;13.99;100.00
26192;BME280;13935;55.672;37.764;2023-09-08T01:33:45;100356.16;;;13.93;100.00
26192;BME280;13935;55.672;37.764;2023-09-08T01:34:48;100355.78;;;13.91;100.00
26192;BME280;13935;55.672;37.764;2023-09-08T01:35:51;100357.38;;;13.92;100.00
26192;BME280;13935;55.672;37.764;2023-09-08T01:36:54;100354.56;;;13.99;100.00
26192;BME280;13935;55.672;37.764;2023-09-08T01:37:56;100351.00;;;13.88;100.00
26192;BME280;13935;55.672;37.764;2023-09-08T01:38:58;100358.56;;;13.98;100.00
26192;BME280;13935;55.672;37.764;2023-09-08T01:40:01;100351.41;;;13.97;100.00
26192;BME280;13935;55.672;37.764;2023-09-08T01:41:04;100356.16;;;14.00;100.00
26192;BME280;13935;55.672;37.764;2023-09-08T01:42:06;100358.94;;;14.00;100.00
26192;BME280;13935;55.672;37.764;2023-09-08T01:43:08;100349.81;;;13.99;100.00
26192;BME280;13935;55.672;37.764;2023-09-08T01:44:10;100349.00;;;13.99;100.00
26192;BME280;13935;55.672;37.764;2023-09-08T01:45:13;100345.03;;;13.93;100.00
26192;BME280;13935;55.672;37.764;2023-09-08T01:46:15;100347.81;;;13.93;100.00
26192;BME280;13935;55.672;37.764;2023-09-08T01:47:18;100343.06;;;13.90;100.00
26192;BME280;13935;55.672;37.764;2023-09-08T01:48:20;100353.78;;;13.95;100.00
26192;BME280;13935;55.672;37.764;2023-09-08T01:49:25;100348.22;;;13.95;100.00
26192;BME280;13935;55.672;37.764;2023-09-08T01:50:27;100341.88;;;13.94;100.00
26192;BME280;13935;55.672;37.764;2023-09-08T01:51:29;100344.66;;;13.94;100.00
26192;BME280;13935;55.672;37.764;2023-09-08T01:52:31;100335.50;;;13.83;100.00
26192;BME280;13935;55.672;37.764;2023-09-08T01:53:33;100344.66;;;13.84;100.00
26192;BME280;13935;55.672;37.764;2023-09-08T01:54:35;100345.84;;;13.93;100.00
26192;BME280;13935;55.672;37.764;2023-09-08T01:55:37;100337.50;;;13.90;100.00
26192;BME280;13935;55.672;37.764;2023-09-08T01:56:39;100342.28;;;13.86;100.00
26192;BME280;13935;55.672;37.764;2023-09-08T01:57:42;100346.63;;;13.80;100.00
26192;BME280;13935;55.672;37.764;2023-09-08T01:58:44;100342.66;;;13.88;100.00
26192;BME280;13935;55.672;37.764;2023-09-08T01:59:47;100337.50;;;13.83;100.00
26192;BME280;13935;55.672;37.764;2023-09-08T02:00:53;100339.88;;;13.88;100.00
26192;BME280;13935;55.672;37.764;2023-09-08T02:01:55;100340.28;;;13.79;100.00
26192;BME280;13935;55.672;37.764;2023-09-08T02:02:57;100341.47;;;13.85;100.00
26192;BME280;13935;55.672;37.764;2023-09-08T02:04:00;100341.84;;;13.77;100.00
26192;BME280;13935;55.672;37.764;2023-09-08T02:05:02;100340.69;;;13.78;100.00
26192;BME280;13935;55.672;37.764;2023-09-08T02:06:05;100340.69;;;13.78;100.00
26192;BME280;13935;55.672;37.764;2023-09-08T02:07:07;100341.84;;;13.77;100.00
26192;BME280;13935;55.672;37.764;2023-09-08T02:08:09;100335.09;;;13.64;100.00
26192;BME280;13935;55.672;37.764;2023-09-08T02:09:13;100339.47;;;13.72;100.00
26192;BME280;13935;55.672;37.764;2023-09-08T02:10:16;100346.63;;;13.73;100.00
26192;BME280;13935;55.672;37.764;2023-09-08T02:11:20;100337.88;;;13.64;100.00
26192;BME280;13935;55.672;37.764;2023-09-08T02:12:23;100336.66;;;13.54;100.00
26192;BME280;13935;55.672;37.764;2023-09-08T02:13:25;100335.47;;;13.55;100.00
26192;BME280;13935;55.672;37.764;2023-09-08T02:14:30;100340.25;;;13.58;100.00
26192;BME280;13935;55.672;37.764;2023-09-08T02:15:35;100341.06;;;13.66;100.00
26192;BME280;13935;55.672;37.764;2023-09-08T02:16:39;100331.53;;;13.63;100.00
26192;BME280;13935;55.672;37.764;2023-09-08T02:17:41;100337.84;;;13.50;100.00
26192;BME280;13935;55.672;37.764;2023-09-08T02:18:45;100338.66;;;13.54;100.00
26192;BME280;13935;55.672;37.764;2023-09-08T02:19:47;100335.47;;;13.49;100.00
26192;BME280;13935;55.672;37.764;2023-09-08T02:20:49;100334.66;;;13.55;100.00
26192;BME280;13935;55.672;37.764;2023-09-08T02:21:51;100331.47;;;13.36;100.00
26192;BME280;13935;55.672;37.764;2023-09-08T02:22:54;100332.25;;;13.29;100.00
26192;BME280;13935;55.672;37.764;2023-09-08T02:23:56;100339.03;;;13.32;100.00
26192;BME280;13935;55.672;37.764;2023-09-08T02:24:58;100335.03;;;13.29;100.00
26192;BME280;13935;55.672;37.764;2023-09-08T02:26:01;100335.44;;;13.31;100.00
26192;BME280;13935;55.672;37.764;2023-09-08T02:27:03;100337.44;;;13.38;100.00
26192;BME280;13935;55.672;37.764;2023-09-08T02:28:05;100337.03;;;13.32;100.00
26192;BME280;13935;55.672;37.764;2023-09-08T02:29:08;100329.06;;;13.27;100.00
26192;BME280;13935;55.672;37.764;2023-09-08T02:30:10;100333.41;;;13.18;100.00
26192;BME280;13935;55.672;37.764;2023-09-08T02:31:13;100327.47;;;13.19;100.00
26192;BME280;13935;55.672;37.764;2023-09-08T02:32:15;100327.47;;;13.19;100.00
26192;BME280;13935;55.672;37.764;2023-09-08T02:33:17;100325.03;;;13.07;100.00
26192;BME280;13935;55.672;37.764;2023-09-08T02:34:19;100321.13;;;13.19;100.00
26192;BME280;13935;55.672;37.764;2023-09-08T02:35:23;100323.09;;;13.25;100.00
26192;BME280;13935;55.672;37.764;2023-09-08T02:36:27;100315.53;;;13.15;100.00
26192;BME280;13935;55.672;37.764;2023-09-08T02:37:31;100310.78;;;13.19;100.00
26192;BME280;13935;55.672;37.764;2023-09-08T02:38:33;100315.16;;;13.20;100.00
26192;BME280;13935;55.672;37.764;2023-09-08T02:39:36;100309.56;;;13.10;100.00
26192;BME280;13935;55.672;37.764;2023-09-08T02:40:38;100307.63;;;13.17;100.00
26192;BME280;13935;55.672;37.764;2023-09-08T02:41:41;100300.88;;;13.25;100.00
26192;BME280;13935;55.672;37.764;2023-09-08T02:42:43;100299.69;;;13.30;100.00
26192;BME280;13935;55.672;37.764;2023-09-08T02:43:46;100305.25;;;13.23;100.00
26192;BME280;13935;55.672;37.764;2023-09-08T02:44:48;100295.72;;;13.27;100.00
26192;BME280;13935;55.672;37.764;2023-09-08T02:45:50;100307.22;;;13.19;100.00
26192;BME280;13935;55.672;37.764;2023-09-08T02:46:53;100297.31;;;13.21;100.00
26192;BME280;13935;55.672;37.764;2023-09-08T02:47:55;100302.06;;;13.28;100.00
26192;BME280;13935;55.672;37.764;2023-09-08T02:48:57;100293.34;;;13.26;100.00
26192;BME280;13935;55.672;37.764;2023-09-08T02:50:00;100295.72;;;13.20;100.00
26192;BME280;13935;55.672;37.764;2023-09-08T02:51:03;100291.75;;;13.28;100.00
26192;BME280;13935;55.672;37.764;2023-09-08T02:52:06;100289.75;;;13.29;100.00
26192;BME280;13935;55.672;37.764;2023-09-08T02:53:08;100286.97;;;13.25;100.00
26192;BME280;13935;55.672;37.764;2023-09-08T02:54:10;100287.78;;;13.19;100.00
26192;BME280;13935;55.672;37.764;2023-09-08T02:55:12;100297.31;;;13.28;100.00
26192;BME280;13935;55.672;37.764;2023-09-08T02:56:19;100298.09;;;13.25;100.00
26192;BME280;13935;55.672;37.764;2023-09-08T02:57:22;100294.13;;;13.23;100.00
26192;BME280;13935;55.672;37.764;2023-09-08T02:58:25;100294.91;;;13.30;100.00
26192;BME280;13935;55.672;37.764;2023-09-08T02:59:29;100292.53;;;13.22;100.00
26192;BME280;13935;55.672;37.764;2023-09-08T03:00:32;100299.69;;;13.30;100.00
26192;BME280;13935;55.672;37.764;2023-09-08T03:01:34;100294.16;;;13.33;100.00
26192;BME280;13935;55.672;37.764;2023-09-08T03:02:37;100302.09;;;13.38;100.00
26192;BME280;13935;55.672;37.764;2023-09-08T03:03:43;100305.28;;;13.40;100.00
26192;BME280;13935;55.672;37.764;2023-09-08T03:04:46;100299.28;;;13.28;100.00
26192;BME280;13935;55.672;37.764;2023-09-08T03:05:48;100289.00;;;13.39;100.00
26192;BME280;13935;55.672;37.764;2023-09-08T03:06:50;100293.38;;;13.36;100.00
26192;BME280;13935;55.672;37.764;2023-09-08T03:07:52;100298.13;;;13.43;100.00
26192;BME280;13935;55.672;37.764;2023-09-08T03:08:55;100302.50;;;13.47;100.00
26192;BME280;13935;55.672;37.764;2023-09-08T03:09:57;100296.97;;;13.57;100.00
26192;BME280;13935;55.672;37.764;2023-09-08T03:10:59;100292.59;;;13.60;100.00
26192;BME280;13935;55.672;37.764;2023-09-08T03:12:02;100297.75;;;13.61;100.00
26192;BME280;13935;55.672;37.764;2023-09-08T03:13:04;100291.41;;;13.61;100.00
26192;BME280;13935;55.672;37.764;2023-09-08T03:14:06;100291.78;;;13.42;100.00
26192;BME280;13935;55.672;37.764;2023-09-08T03:15:09;100287.41;;;13.55;100.00
26192;BME280;13935;55.672;37.764;2023-09-08T03:16:11;100287.03;;;13.53;100.00
26192;BME280;13935;55.672;37.764;2023-09-08T03:17:13;100288.22;;;13.52;100.00
26192;BME280;13935;55.672;37.764;2023-09-08T03:18:15;100295.38;;;13.60;100.00
26192;BME280;13935;55.672;37.764;2023-09-08T03:19:17;100290.59;;;13.57;100.00
26192;BME280;13935;55.672;37.764;2023-09-08T03:20:19;100290.97;;;13.42;100.00
26192;BME280;13935;55.672;37.764;2023-09-08T03:21:22;100287.81;;;13.57;100.00
26192;BME280;13935;55.672;37.764;2023-09-08T03:22:24;100298.94;;;13.53;100.00
26192;BME280;13935;55.672;37.764;2023-09-08T03:23:27;100292.59;;;13.56;100.00
26192;BME280;13935;55.672;37.764;2023-09-08T03:24:29;100285.84;;;13.51;100.00
26192;BME280;13935;55.672;37.764;2023-09-08T03:25:31;100289.00;;;13.52;100.00
26192;BME280;13935;55.672;37.764;2023-09-08T03:26:33;100287.81;;;13.57;100.00
26192;BME280;13935;55.672;37.764;2023-09-08T03:27:35;100284.66;;;13.52;100.00
26192;BME280;13935;55.672;37.764;2023-09-08T03:28:38;100290.19;;;13.55;100.00
26192;BME280;13935;55.672;37.764;2023-09-08T03:29:41;100284.66;;;13.48;100.00
26192;BME280;13935;55.672;37.764;2023-09-08T03:30:42;100286.22;;;13.52;100.00
26192;BME280;13935;55.672;37.764;2023-09-08T03:31:44;100283.84;;;13.51;100.00
26192;BME280;13935;55.672;37.764;2023-09-08T03:32:47;100281.47;;;13.53;100.00
26192;BME280;13935;55.672;37.764;2023-09-08T03:33:49;100275.91;;;13.43;100.00
26192;BME280;13935;55.672;37.764;2023-09-08T03:34:51;100283.44;;;13.39;100.00
26192;BME280;13935;55.672;37.764;2023-09-08T03:35:53;100283.44;;;13.56;100.00
26192;BME280;13935;55.672;37.764;2023-09-08T03:36:55;100273.13;;;13.60;100.00
26192;BME280;13935;55.672;37.764;2023-09-08T03:37:58;100276.28;;;13.62;100.00
26192;BME280;13935;55.672;37.764;2023-09-08T03:39:00;100277.47;;;13.71;100.00
26192;BME280;13935;55.672;37.764;2023-09-08T03:40:02;100274.31;;;13.69;100.00
26192;BME280;13935;55.672;37.764;2023-09-08T03:41:07;100281.47;;;13.81;100.00
26192;BME280;13935;55.672;37.764;2023-09-08T03:42:10;100275.91;;;13.74;100.00
26192;BME280;13935;55.672;37.764;2023-09-08T03:43:12;100273.13;;;13.67;100.00
26192;BME280;13935;55.672;37.764;2023-09-08T03:44:14;100279.91;;;13.69;100.00
26192;BME280;13935;55.672;37.764;2023-09-08T03:45:16;100272.75;;;13.86;100.00
26192;BME280;13935;55.672;37.764;2023-09-08T03:46:18;100267.13;;;14.00;100.00
26192;BME280;13935;55.672;37.764;2023-09-08T03:47:21;100271.94;;;13.75;100.00
26192;BME280;13935;55.672;37.764;2023-09-08T03:48:24;100270.75;;;13.83;100.00
26192;BME280;13935;55.672;37.764;2023-09-08T03:49:27;100272.69;;;13.93;100.00
26192;BME280;13935;55.672;37.764;2023-09-08T03:50:29;100268.31;;;14.06;100.00
26192;BME280;13935;55.672;37.764;2023-09-08T03:51:31;100261.59;;;14.10;100.00
26192;BME280;13935;55.672;37.764;2023-09-08T03:52:34;100264.75;;;14.19;100.00
26192;BME280;13935;55.672;37.764;2023-09-08T03:53:36;100259.97;;;14.20;100.00
26192;BME280;13935;55.672;37.764;2023-09-08T03:54:38;100266.31;;;14.30;100.00
26192;BME280;13935;55.672;37.764;2023-09-08T03:55:41;100259.91;;;14.51;100.00
26192;BME280;13935;55.672;37.764;2023-09-08T03:56:43;100261.03;;;14.60;100.00
26192;BME280;13935;55.672;37.764;2023-09-08T03:57:45;100257.47;;;14.60;100.00
26192;BME280;13935;55.672;37.764;2023-09-08T03:58:47;100253.09;;;14.52;100.00
26192;BME280;13935;55.672;37.764;2023-09-08T03:59:49;100245.44;;;14.73;100.00
26192;BME280;13935;55.672;37.764;2023-09-08T04:00:51;100245.88;;;14.72;100.00
26192;BME280;13935;55.672;37.764;2023-09-08T04:01:53;100254.88;;;15.00;100.00
26192;BME280;13935;55.672;37.764;2023-09-08T04:02:56;100243.72;;;15.03;100.00
26192;BME280;13935;55.672;37.764;2023-09-08T04:03:59;100247.34;;;15.55;100.00
26192;BME280;13935;55.672;37.764;2023-09-08T04:05:03;100249.59;;;15.73;100.00
26192;BME280;13935;55.672;37.764;2023-09-08T04:06:06;100234.84;;;15.19;100.00
26192;BME280;13935;55.672;37.764;2023-09-08T04:07:08;100241.22;;;15.23;100.00
26192;BME280;13935;55.672;37.764;2023-09-08T04:08:10;100240.47;;;15.12;100.00
26192;BME280;13935;55.672;37.764;2023-09-08T04:09:12;100251.19;;;15.17;100.00
26192;BME280;13935;55.672;37.764;2023-09-08T04:10:14;100249.97;;;15.18;100.00
26192;BME280;13935;55.672;37.764;2023-09-08T04:11:16;100253.16;;;15.27;100.00
26192;BME280;13935;55.672;37.764;2023-09-08T04:12:18;100261.22;;;15.04;100.00
26192;BME280;13935;55.672;37.764;2023-09-08T04:13:20;100258.78;;;15.13;100.00
26192;BME280;13935;55.672;37.764;2023-09-08T04:14:22;100251.56;;;15.26;100.00
26192;BME280;13935;55.672;37.764;2023-09-08T04:15:31;100252.97;;;15.48;100.00
26192;BME280;13935;55.672;37.764;2023-09-08T04:16:33;100257.84;;;15.37;100.00
26192;BME280;13935;55.672;37.764;2023-09-08T04:17:36;100252.19;;;15.47;100.00
26192;BME280;13935;55.672;37.764;2023-09-08T04:18:38;100250.59;;;15.46;100.00
26192;BME280;13935;55.672;37.764;2023-09-08T04:19:40;100257.59;;;15.72;100.00
26192;BME280;13935;55.672;37.764;2023-09-08T04:20:43;100246.09;;;15.63;100.00
26192;BME280;13935;55.672;37.764;2023-09-08T04:21:45;100254.38;;;15.73;100.00
26192;BME280;13935;55.672;37.764;2023-09-08T04:22:47;100253.38;;;15.50;100.00
26192;BME280;13935;55.672;37.764;2023-09-08T04:23:49;100249.63;;;15.67;100.00
26192;BME280;13935;55.672;37.764;2023-09-08T04:24:51;100256.88;;;16.04;100.00
26192;BME280;13935;55.672;37.764;2023-09-08T04:25:56;100251.13;;;16.22;100.00
26192;BME280;13935;55.672;37.764;2023-09-08T04:26:58;100247.53;;;17.17;100.00
26192;BME280;13935;55.672;37.764;2023-09-08T04:28:00;100245.44;;;17.21;100.00
26192;BME280;13935;55.672;37.764;2023-09-08T04:29:02;100243.94;;;16.87;100.00
26192;BME280;13935;55.672;37.764;2023-09-08T04:30:05;100234.47;;;17.37;100.00
26192;BME280;13935;55.672;37.764;2023-09-08T04:31:07;100243.69;;;17.84;100.00
26192;BME280;13935;55.672;37.764;2023-09-08T04:32:09;100242.34;;;18.57;100.00
26192;BME280;13935;55.672;37.764;2023-09-08T04:33:11;100239.63;;;19.43;95.03
26192;BME280;13935;55.672;37.764;2023-09-08T04:34:14;100238.06;;;19.74;88.56
26192;BME280;13935;55.672;37.764;2023-09-08T04:35:17;100232.94;;;19.53;86.67
26192;BME280;13935;55.672;37.764;2023-09-08T04:36:19;100236.81;;;19.75;86.20
26192;BME280;13935;55.672;37.764;2023-09-08T04:37:21;100234.53;;;20.02;83.75
26192;BME280;13935;55.672;37.764;2023-09-08T04:38:23;100235.56;;;19.76;79.95
26192;BME280;13935;55.672;37.764;2023-09-08T04:39:26;100233.72;;;19.22;87.28
26192;BME280;13935;55.672;37.764;2023-09-08T04:40:28;100239.72;;;18.85;84.62
26192;BME280;13935;55.672;37.764;2023-09-08T04:41:30;100236.75;;;18.92;93.16
26192;BME280;13935;55.672;37.764;2023-09-08T04:42:32;100240.88;;;18.49;92.69
26192;BME280;13935;55.672;37.764;2023-09-08T04:43:36;100233.75;;;18.25;97.71
26192;BME280;13935;55.672;37.764;2023-09-08T04:44:38;100230.47;;;18.07;98.25
26192;BME280;13935;55.672;37.764;2023-09-08T04:45:41;100236.28;;;17.47;99.80
26192;BME280;13935;55.672;37.764;2023-09-08T04:46:44;100231.72;;;17.34;100.00
26192;BME280;13935;55.672;37.764;2023-09-08T04:47:48;100239.50;;;17.19;100.00
26192;BME280;13935;55.672;37.764;2023-09-08T04:48:53;100225.09;;;16.95;100.00
26192;BME280;13935;55.672;37.764;2023-09-08T04:49:57;100228.06;;;16.51;100.00
26192;BME280;13935;55.672;37.764;2023-09-08T04:51:00;100224.06;;;16.52;100.00
26192;BME280;13935;55.672;37.764;2023-09-08T04:52:04;100223.53;;;16.27;100.00
26192;BME280;13935;55.672;37.764;2023-09-08T04:53:06;100225.13;;;16.28;100.00
26192;BME280;13935;55.672;37.764;2023-09-08T04:54:34;100229.50;;;16.29;100.00
26192;BME280;13935;55.672;37.764;2023-09-08T04:55:50;100233.00;;;16.40;100.00
26192;BME280;13935;55.672;37.764;2023-09-08T04:56:53;100222.88;;;16.13;100.00
26192;BME280;13935;55.672;37.764;2023-09-08T04:58:08;100218.56;;;16.45;100.00
26192;BME280;13935;55.672;37.764;2023-09-08T04:59:10;100228.66;;;17.74;100.00
26192;BME280;13935;55.672;37.764;2023-09-08T05:00:13;100233.63;;;18.09;99.47
26192;BME280;13935;55.672;37.764;2023-09-08T05:01:15;100222.47;;;18.05;98.06
26192;BME280;13935;55.672;37.764;2023-09-08T05:02:17;100226.91;;;17.34;99.91
26192;BME280;13935;55.672;37.764;2023-09-08T05:03:21;100224.03;;;17.12;100.00
26192;BME280;13935;55.672;37.764;2023-09-08T05:04:23;100226.78;;;16.89;100.00
26192;BME280;13935;55.672;37.764;2023-09-08T05:05:26;100219.19;;;16.59;100.00
26192;BME280;13935;55.672;37.764;2023-09-08T05:06:28;100218.66;;;16.38;100.00
26192;BME280;13935;55.672;37.764;2023-09-08T05:07:31;100218.38;;;16.59;100.00
26192;BME280;13935;55.672;37.764;2023-09-08T05:08:33;100222.97;;;16.76;100.00
26192;BME280;13935;55.672;37.764;2023-09-08T05:09:36;100226.75;;;17.68;100.00
26192;BME280;13935;55.672;37.764;2023-09-08T05:10:38;100225.56;;;18.34;100.00
26192;BME280;13935;55.672;37.764;2023-09-08T05:11:40;100219.81;;;18.21;96.71
26192;BME280;13935;55.672;37.764;2023-09-08T05:12:43;100213.63;;;17.65;99.12
26192;BME280;13935;55.672;37.764;2023-09-08T05:13:46;100213.56;;;17.68;100.00
26192;BME280;13935;55.672;37.764;2023-09-08T05:14:48;100209.63;;;17.39;100.00
26192;BME280;13935;55.672;37.764;2023-09-08T05:15:50;100218.66;;;17.50;100.00
26192;BME280;13935;55.672;37.764;2023-09-08T05:16:54;100206.03;;;18.07;96.45
26192;BME280;13935;55.672;37.764;2023-09-08T05:18:01;100204.25;;;18.17;93.12
26192;BME280;13935;55.672;37.764;2023-09-08T05:19:03;100202.25;;;18.95;92.81
26192;BME280;13935;55.672;37.764;2023-09-08T05:20:06;100200.25;;;19.46;83.14
26192;BME280;13935;55.672;37.764;2023-09-08T05:21:10;100198.03;;;19.70;80.80
26192;BME280;13935;55.672;37.764;2023-09-08T05:22:13;100196.63;;;19.30;80.95
26192;BME280;13935;55.672;37.764;2023-09-08T05:23:16;100201.66;;;18.49;86.76
26192;BME280;13935;55.672;37.764;2023-09-08T05:24:21;100198.78;;;18.52;86.62